Terminal Aerodrome Forecast
Issued by NWS Greer, SC

Home | Current Version | Previous Version | Text Only | Print | Product List | Glossary On
Versions: 1 2 3 4 5 6 7 8 9 10 11 12 13 14 15 16
000
FTUS42 KGSP 272323
TAFAVL
TAF
KAVL 272323Z 2800/2824 16005KT P6SM SCT050
     FM280200 VRB03KT P6SM FEW060
     FM280800 00000KT 5SM BR SCT045
     FM281200 00000KT P6SM SCT250
     FM281800 13006KT P6SM FEW050=

USA.gov is the U.S. government's official web portal to all federal, state and local government web resources and services.